General Aviation Weather

Text Reports

Enter one or more of the following location identifiers separated by a space:

Zip Code, Four-Character ICAO or Three-Character IATA airport codes.

METAR - Aviation Routine Weather Report
KM30 - Metropolis, Illinois
Updated at 6:15 PM GMT on February 28, 2015 (12:15 PM CST):
METAR KM30 281815Z AUTO 09005KT 10SM BKN055 BKN075 00/M09 A3057 RMK AO2 T00001094
TAF - Terminal Area Forecast
KM30 - Metropolis, Illinois
Updated at 6:15 PM GMT on February 28, 2015 (12:15 PM CST):
No TAF is currently available for this location.
Decoded:
No decoded TAF is available.
PIREP - Pilot Weather Report
KM30 - Metropolis, Illinois
Updated at 6:15 PM GMT on February 28, 2015 (12:15 PM CST):
No PIREP is currently available for this location.
AIRMET - Airmens Meteorological Information
KM30 - Metropolis, Illinois
Updated at 6:15 PM GMT on February 28, 2015 (12:15 PM CST):
No AIRMET is currently available for this location.
SIGMET - Significant Meteorological Information
KM30 - Metropolis, Illinois
Updated at 6:15 PM GMT on February 28, 2015 (12:15 PM CST):
No SIGMET is currently available for this location.
NOTAM - Notice to Airmen
KM30 - Metropolis, Illinois
Updated at 6:15 PM GMT on February 28, 2015 (12:15 PM CST):
No NOTAM is currently available for this location.
Forecast Area
KM30 - Metropolis, Illinois
Updated at 6:15 PM GMT on February 28, 2015 (12:15 PM CST):
No NOTAM is currently available for this location.
Aviation Weather Maps